createdAt,value
2023-01-10T00:00:15.230Z,72.43
2023-01-10T00:02:44.856Z,73.34
2023-01-10T00:05:17.100Z,73.29
2023-01-10T00:07:46.601Z,72.45
2023-01-10T00:10:16.115Z,72.55
2023-01-10T00:12:58.095Z,72.39
2023-01-10T00:15:27.563Z,72.25
2023-01-10T00:17:57.039Z,70.66
2023-01-10T00:20:29.161Z,71.73
2023-01-10T00:22:58.636Z,71.23
2023-01-10T00:25:28.268Z,71.59
2023-01-10T00:28:01.919Z,71.51
2023-01-10T00:30:31.669Z,71.08
2023-01-10T00:33:01.569Z,71.30
2023-01-10T00:35:33.666Z,71.46
2023-01-10T00:38:05.849Z,71.15
2023-01-10T00:40:35.523Z,71.36
2023-01-10T00:43:17.447Z,72.21
2023-01-10T00:45:47.628Z,70.18
2023-01-10T00:48:17.309Z,70.58
2023-01-10T00:50:49.401Z,71.40
2023-01-10T00:53:18.983Z,70.26
2023-01-10T00:55:48.493Z,70.72
2023-01-10T00:58:17.962Z,70.85
2023-01-10T01:00:49.872Z,70.36
2023-01-10T01:03:20.154Z,68.95
2023-01-10T01:05:52.467Z,69.20
2023-01-10T01:08:22.027Z,68.91
2023-01-10T01:10:51.914Z,68.67
2023-01-10T01:13:22.172Z,67.64
2023-01-10T01:15:51.945Z,67.95
2023-01-10T01:18:22.457Z,67.79
2023-01-10T01:20:57.455Z,67.92
2023-01-10T01:23:26.973Z,68.17
2023-01-10T01:25:56.577Z,68.45
2023-01-10T01:28:26.097Z,67.81
2023-01-10T01:30:55.698Z,68.25
2023-01-10T01:33:25.354Z,67.82
2023-01-10T01:35:57.405Z,68.01
2023-01-10T01:38:26.983Z,67.82
2023-01-10T01:40:56.445Z,67.52
2023-01-10T01:43:27.038Z,68.19
2023-01-10T01:45:56.833Z,67.67
2023-01-10T01:48:37.903Z,68.10
2023-01-10T01:51:11.768Z,66.40
2023-01-10T01:53:43.924Z,66.43
2023-01-10T01:56:15.888Z,66.87
2023-01-10T01:58:49.323Z,67.27
2023-01-10T02:01:18.904Z,67.26
2023-01-10T02:03:50.372Z,66.84
2023-01-10T02:06:23.015Z,66.10
2023-01-10T02:08:55.129Z,66.96
2023-01-10T02:11:24.577Z,66.88
2023-01-10T02:13:54.021Z,66.25
2023-01-10T02:16:23.513Z,67.05
2023-01-10T02:18:52.945Z,65.93
2023-01-10T02:21:33.389Z,65.37
2023-01-10T02:24:23.271Z,66.19
2023-01-10T02:27:12.135Z,65.93
2023-01-10T02:30:20.157Z,67.11
2023-01-10T02:33:04.396Z,66.93
2023-01-10T02:35:45.259Z,66.03
2023-01-10T02:38:19.321Z,65.90
2023-01-10T02:40:52.409Z,64.94
2023-01-10T02:43:23.508Z,64.93
2023-01-10T02:45:53.969Z,65.99
2023-01-10T02:48:26.093Z,66.13
2023-01-10T02:50:58.653Z,66.50
2023-01-10T02:53:29.688Z,66.53
2023-01-10T02:56:02.237Z,67.10
2023-01-10T02:58:37.092Z,66.18
2023-01-10T03:01:08.137Z,65.86
2023-01-10T03:03:41.969Z,66.44
2023-01-10T03:06:19.439Z,66.27
2023-01-10T03:08:52.803Z,67.18
2023-01-10T03:11:40.069Z,67.30
2023-01-10T03:14:13.192Z,67.17
2023-01-10T03:16:42.949Z,66.83
2023-01-10T03:19:16.408Z,67.43
2023-01-10T03:21:46.285Z,67.86
2023-01-10T03:24:18.504Z,67.50
2023-01-10T03:26:50.457Z,68.03
2023-01-10T03:29:21.960Z,68.30
2023-01-10T03:31:53.849Z,67.00
2023-01-10T03:34:25.983Z,66.77
2023-01-10T03:36:58.362Z,67.41
2023-01-10T03:39:31.865Z,68.18
2023-01-10T03:42:05.178Z,68.04
2023-01-10T03:44:44.893Z,67.93
2023-01-10T03:47:18.505Z,68.08
2023-01-10T03:49:51.692Z,68.20
2023-01-10T03:52:22.262Z,68.08
2023-01-10T03:54:51.806Z,68.13
2023-01-10T03:57:23.646Z,67.77
2023-01-10T03:59:55.083Z,67.93
2023-01-10T04:02:24.629Z,68.59
2023-01-10T04:04:56.742Z,68.39
2023-01-10T04:07:26.367Z,67.30
2023-01-10T04:09:55.936Z,67.30
2023-01-10T04:12:25.695Z,67.97
2023-01-10T04:14:55.269Z,68.27
2023-01-10T04:17:24.846Z,67.18
2023-01-10T04:19:56.932Z,65.90
2023-01-10T04:22:26.784Z,66.79
2023-01-10T04:24:56.343Z,67.60
2023-01-10T04:27:25.902Z,66.85
2023-01-10T04:29:55.463Z,66.49
2023-01-10T04:32:25.013Z,66.30
2023-01-10T04:34:57.107Z,65.71
2023-01-10T04:37:26.678Z,65.95
2023-01-10T04:39:56.486Z,66.33
2023-01-10T04:42:26.165Z,66.31
2023-01-10T04:44:58.062Z,67.47
2023-01-10T04:47:27.564Z,67.64
2023-01-10T04:49:59.635Z,68.30
2023-01-10T04:52:29.090Z,68.30
2023-01-10T04:54:58.531Z,68.36
2023-01-10T04:57:27.978Z,67.35
2023-01-10T04:59:57.413Z,67.88
2023-01-10T05:02:26.885Z,68.08
2023-01-10T05:04:59.062Z,67.54
2023-01-10T05:07:28.518Z,67.27
2023-01-10T05:09:57.987Z,66.80
2023-01-10T05:12:27.461Z,66.37
2023-01-10T05:14:56.882Z,66.96
2023-01-10T05:17:26.369Z,67.90
2023-01-10T05:19:55.844Z,67.71
2023-01-10T05:22:27.886Z,68.47
2023-01-10T05:24:57.316Z,67.91
2023-01-10T05:27:26.758Z,68.12
2023-01-10T05:29:56.669Z,67.95
2023-01-10T05:32:26.285Z,68.27
2023-01-10T05:34:55.970Z,68.95
2023-01-10T05:37:28.015Z,69.06
2023-01-10T05:39:57.488Z,69.26
2023-01-10T05:42:27.035Z,69.24
2023-01-10T05:44:56.477Z,70.21
2023-01-10T05:47:25.943Z,69.94
2023-01-10T05:49:55.416Z,70.71
2023-01-10T05:52:24.897Z,70.90
2023-01-10T05:54:56.986Z,70.60
2023-01-10T05:57:27.245Z,70.35
2023-01-10T05:59:56.684Z,69.98
2023-01-10T06:02:26.677Z,69.10
2023-01-10T06:04:57.121Z,69.50
2023-01-10T06:07:26.607Z,69.15
2023-01-10T06:09:58.725Z,68.78
2023-01-10T06:12:28.181Z,69.01
2023-01-10T06:14:57.684Z,69.11
2023-01-10T06:17:27.169Z,68.93
2023-01-10T06:19:56.624Z,68.36
2023-01-10T06:22:28.558Z,67.60
2023-01-10T06:25:02.449Z,67.93
2023-01-10T06:27:32.105Z,68.29
2023-01-10T06:30:01.775Z,68.64
2023-01-10T06:32:31.229Z,67.91
2023-01-10T06:35:00.804Z,69.43
2023-01-10T06:37:30.222Z,69.53
2023-01-10T06:40:02.288Z,69.49
2023-01-10T06:42:31.726Z,70.18
2023-01-10T06:45:01.663Z,69.08
2023-01-10T06:47:31.180Z,69.89
2023-01-10T06:50:03.516Z,69.87
2023-01-10T06:52:32.937Z,70.03
2023-01-10T06:55:05.039Z,69.47
2023-01-10T06:57:35.561Z,69.13
2023-01-10T07:00:05.337Z,69.19
2023-01-10T07:02:34.859Z,67.69
2023-01-10T07:05:04.416Z,67.62
2023-01-10T07:07:33.956Z,66.83
2023-01-10T07:10:06.422Z,67.36
2023-01-10T07:12:36.056Z,67.02
2023-01-10T07:15:05.630Z,66.50
2023-01-10T07:17:35.186Z,66.72
2023-01-10T07:20:04.715Z,65.88
2023-01-10T07:22:34.258Z,66.94
2023-01-10T07:25:06.746Z,66.81
2023-01-10T07:27:36.267Z,66.12
2023-01-10T07:30:06.069Z,66.15
2023-01-10T07:32:35.594Z,66.91
2023-01-10T07:35:05.103Z,67.93
2023-01-10T07:37:34.663Z,68.01
2023-01-10T07:40:07.241Z,69.19
2023-01-10T07:42:36.735Z,69.78
2023-01-10T07:45:07.355Z,70.45
2023-01-10T07:47:36.930Z,71.12
2023-01-10T07:50:07.068Z,71.30
2023-01-10T07:52:38.357Z,70.93
2023-01-10T07:55:11.784Z,70.55
2023-01-10T07:57:41.280Z,68.64
2023-01-10T08:00:12.382Z,68.81
2023-01-10T08:02:41.742Z,67.56
2023-01-10T08:05:12.548Z,69.33
2023-01-10T08:07:42.075Z,69.66
2023-01-10T08:10:14.810Z,69.68
2023-01-10T08:12:44.308Z,69.00
2023-01-10T08:15:14.155Z,69.84
2023-01-10T08:17:44.690Z,68.67
2023-01-10T08:20:15.273Z,68.56
2023-01-10T08:22:45.094Z,68.41
2023-01-10T08:25:17.291Z,67.17
2023-01-10T08:27:46.776Z,66.16
2023-01-10T08:30:17.707Z,65.30
2023-01-10T08:32:47.256Z,65.39
2023-01-10T08:35:16.791Z,64.54
2023-01-10T08:37:46.457Z,63.71
2023-01-10T08:40:21.067Z,64.03
2023-01-10T08:42:50.629Z,63.16
2023-01-10T08:45:20.303Z,62.73
2023-01-10T08:47:49.751Z,61.77
2023-01-10T08:50:19.489Z,61.74
2023-01-10T08:52:49.176Z,63.01
2023-01-10T08:55:21.608Z,64.63
2023-01-10T08:57:51.307Z,64.52
2023-01-10T09:00:21.858Z,63.57
2023-01-10T09:02:54.637Z,63.21
2023-01-10T09:05:28.323Z,63.45
2023-01-10T09:08:01.275Z,62.89
2023-01-10T09:10:33.325Z,63.26
2023-01-10T09:13:04.225Z,62.12
2023-01-10T09:15:34.464Z,61.63
2023-01-10T09:18:05.025Z,61.47
2023-01-10T09:20:34.715Z,61.39
2023-01-10T09:23:08.500Z,61.22
2023-01-10T09:25:40.593Z,60.61
2023-01-10T09:28:10.059Z,59.79
2023-01-10T09:30:39.563Z,60.61
2023-01-10T09:33:09.281Z,60.11
2023-01-10T09:35:39.373Z,60.53
2023-01-10T09:38:13.056Z,60.97
2023-01-10T09:41:04.803Z,60.13
2023-01-10T09:43:40.917Z,60.44
2023-01-10T09:46:13.299Z,60.16
2023-01-10T09:48:46.498Z,59.81
2023-01-10T09:51:26.496Z,59.97
2023-01-10T09:54:10.073Z,59.44
2023-01-10T09:56:43.207Z,59.57
2023-01-10T09:59:16.299Z,59.24
2023-01-10T10:01:46.024Z,58.78
2023-01-10T10:04:21.785Z,59.71
2023-01-10T10:06:51.700Z,60.13
2023-01-10T10:09:24.749Z,60.19
2023-01-10T10:12:10.338Z,60.50
2023-01-10T10:14:52.036Z,61.03
2023-01-10T10:17:29.299Z,61.34
2023-01-10T10:20:05.349Z,60.21
2023-01-10T10:22:40.442Z,59.68
2023-01-10T10:25:17.511Z,59.71
2023-01-10T10:27:57.740Z,60.13
2023-01-10T10:30:36.342Z,59.14
2023-01-10T10:33:27.621Z,59.54
2023-01-10T10:35:58.381Z,58.82
2023-01-10T10:38:29.919Z,59.26
2023-01-10T10:41:00.072Z,59.15
2023-01-10T10:43:33.382Z,59.07
2023-01-10T10:46:05.370Z,59.18
2023-01-10T10:48:36.144Z,58.72
2023-01-10T10:51:08.064Z,57.46
2023-01-10T10:53:37.622Z,57.28
2023-01-10T10:56:08.628Z,55.83
2023-01-10T10:58:40.785Z,55.60
2023-01-10T11:01:12.550Z,55.00
2023-01-10T11:03:44.456Z,53.28
2023-01-10T11:06:13.926Z,53.48
2023-01-10T11:08:45.102Z,53.18
2023-01-10T11:11:20.675Z,53.31
2023-01-10T11:13:55.137Z,53.04
2023-01-10T11:16:32.536Z,52.32
2023-01-10T11:19:23.784Z,53.03
2023-01-10T11:21:53.844Z,52.49
2023-01-10T11:24:25.825Z,52.68
2023-01-10T11:26:55.329Z,54.32
2023-01-10T11:29:28.813Z,52.41
2023-01-10T11:31:59.120Z,52.94
2023-01-10T11:34:29.794Z,53.80
2023-01-10T11:37:01.330Z,54.28
2023-01-10T11:39:31.372Z,54.04
2023-01-10T11:42:00.970Z,53.64
2023-01-10T11:44:33.030Z,53.34
2023-01-10T11:47:04.663Z,53.10
2023-01-10T11:49:35.596Z,52.20
2023-01-10T11:52:06.911Z,52.32
2023-01-10T11:54:36.444Z,53.10
2023-01-10T11:57:06.913Z,53.59
2023-01-10T11:59:39.264Z,54.38
2023-01-10T12:02:14.478Z,54.75
2023-01-10T12:04:44.653Z,56.45
2023-01-10T12:07:14.555Z,56.07
2023-01-10T12:09:45.271Z,57.04
2023-01-10T12:12:20.417Z,56.99
2023-01-10T12:14:52.686Z,56.19
2023-01-10T12:17:26.811Z,56.50
2023-01-10T12:19:58.667Z,56.19
2023-01-10T12:22:29.857Z,56.18
2023-01-10T12:24:59.319Z,56.56
2023-01-10T12:27:28.838Z,57.18
2023-01-10T12:30:05.163Z,56.65
2023-01-10T12:32:38.575Z,56.92
2023-01-10T12:35:10.323Z,56.56
2023-01-10T12:37:42.663Z,56.89
2023-01-10T12:40:15.741Z,57.18
2023-01-10T12:43:02.331Z,57.12
2023-01-10T12:45:37.973Z,58.23
2023-01-10T12:48:10.718Z,58.00
2023-01-10T12:50:41.958Z,58.33
2023-01-10T12:53:26.038Z,57.67
2023-01-10T12:55:57.000Z,57.69
2023-01-10T12:58:29.023Z,57.98
2023-01-10T13:01:02.195Z,58.32
2023-01-10T13:03:33.648Z,59.30
2023-01-10T13:06:03.584Z,58.73
2023-01-10T13:08:34.879Z,59.14
2023-01-10T13:11:04.828Z,59.11
2023-01-10T13:13:36.831Z,59.86
2023-01-10T13:16:19.522Z,59.72
2023-01-10T13:19:04.873Z,59.71
2023-01-10T13:21:35.003Z,60.38
2023-01-10T13:24:05.272Z,60.13
2023-01-10T13:26:49.343Z,60.03
2023-01-10T13:29:20.412Z,60.90
2023-01-10T13:31:57.577Z,60.78
2023-01-10T13:34:29.213Z,60.48
2023-01-10T13:36:59.751Z,60.92
2023-01-10T13:39:32.110Z,61.23
2023-01-10T13:42:37.242Z,61.00
2023-01-10T13:45:31.376Z,61.13
2023-01-10T13:48:07.605Z,60.31
2023-01-10T13:51:00.400Z,60.57
2023-01-10T13:53:45.861Z,61.12
2023-01-10T13:56:39.403Z,62.08
2023-01-10T13:59:26.817Z,61.77
2023-01-10T14:02:08.947Z,62.88
2023-01-10T14:04:42.470Z,62.61
2023-01-10T14:07:18.375Z,63.24
2023-01-10T14:09:47.965Z,63.48
2023-01-10T14:12:23.680Z,63.84
2023-01-10T14:14:55.174Z,63.87
2023-01-10T14:17:26.145Z,63.12
2023-01-10T14:20:19.432Z,62.74
2023-01-10T14:23:05.286Z,63.40
2023-01-10T14:25:35.612Z,63.69
2023-01-10T14:28:05.247Z,62.83
2023-01-10T14:30:35.921Z,62.13
2023-01-10T14:33:07.662Z,62.24
2023-01-10T14:35:41.320Z,62.01
2023-01-10T14:38:11.303Z,62.42
2023-01-10T14:40:43.250Z,63.43
2023-01-10T14:43:14.869Z,62.93
2023-01-10T14:45:47.818Z,63.02
2023-01-10T14:48:31.116Z,63.32
2023-01-10T14:51:18.584Z,63.74
2023-01-10T14:53:48.364Z,63.61
2023-01-10T14:56:24.999Z,63.47
2023-01-10T14:58:54.768Z,63.37
2023-01-10T15:01:26.655Z,63.02
2023-01-10T15:03:57.164Z,63.10
2023-01-10T15:06:48.388Z,62.82
2023-01-10T15:09:37.924Z,62.13
2023-01-10T15:12:11.900Z,63.74
2023-01-10T15:14:44.782Z,63.20
2023-01-10T15:17:20.128Z,63.86
2023-01-10T15:19:52.758Z,64.40
2023-01-10T15:22:40.965Z,63.29
2023-01-10T15:25:28.728Z,63.35
2023-01-10T15:28:03.428Z,63.89
2023-01-10T15:30:45.384Z,63.26
2023-01-10T15:33:30.737Z,63.03
2023-01-10T15:36:13.728Z,62.78
2023-01-10T15:38:52.220Z,64.04
2023-01-10T15:41:30.043Z,64.37
2023-01-10T15:44:53.271Z,64.61
2023-01-10T15:47:40.283Z,65.92
2023-01-10T15:50:45.233Z,64.59
2023-01-10T15:53:28.049Z,64.39
2023-01-10T15:56:38.431Z,64.74
2023-01-10T15:59:36.218Z,64.35
2023-01-10T16:02:24.045Z,64.38
2023-01-10T16:05:08.641Z,64.53
2023-01-10T16:07:46.192Z,65.73
2023-01-10T16:10:45.125Z,66.02
2023-01-10T16:13:31.783Z,65.43
2023-01-10T16:16:04.663Z,66.82
2023-01-10T16:18:35.649Z,66.63
2023-01-10T16:21:07.487Z,67.07
2023-01-10T16:23:54.133Z,66.54
2023-01-10T16:26:57.508Z,66.19
2023-01-10T16:32:21.133Z,67.30
2023-01-10T16:34:51.248Z,68.00
2023-01-10T16:37:21.667Z,67.76
2023-01-10T16:39:54.670Z,67.33
2023-01-10T16:42:41.514Z,67.12
2023-01-10T16:45:39.541Z,66.42
2023-01-10T16:48:14.738Z,65.95
2023-01-10T16:51:01.531Z,64.71
2023-01-10T16:53:46.298Z,64.51
2023-01-10T16:56:27.251Z,63.31
2023-01-10T16:59:10.511Z,63.68
2023-01-10T17:01:59.140Z,64.28
2023-01-10T17:04:36.037Z,65.33
2023-01-10T17:07:16.930Z,64.58
2023-01-10T17:09:52.639Z,63.89
2023-01-10T17:15:40.179Z,64.50
2023-01-10T17:18:25.081Z,65.20
2023-01-10T17:20:55.868Z,65.23
2023-01-10T17:23:29.651Z,66.99
2023-01-10T17:26:10.228Z,67.17
2023-01-10T17:28:47.721Z,67.37
2023-01-10T17:31:23.678Z,68.00
2023-01-10T17:33:57.934Z,68.13
2023-01-10T17:36:32.938Z,67.98
2023-01-10T17:39:06.044Z,67.39
2023-01-10T17:41:36.417Z,68.16
2023-01-10T17:44:06.496Z,68.75
2023-01-10T17:46:39.829Z,68.87
2023-01-10T17:49:13.620Z,68.46
2023-01-10T17:51:47.912Z,68.17
2023-01-10T17:54:18.876Z,68.37
2023-01-10T17:56:48.835Z,69.38
2023-01-10T17:59:23.601Z,69.33
2023-01-10T18:02:08.988Z,68.93
2023-01-10T18:04:49.990Z,68.92
2023-01-10T18:07:24.711Z,69.06
2023-01-10T18:10:19.010Z,68.93
2023-01-10T18:12:49.852Z,69.92
2023-01-10T18:15:20.350Z,70.81
2023-01-10T18:17:50.598Z,71.02
2023-01-10T18:20:28.632Z,71.82
2023-01-10T18:23:10.890Z,72.65
2023-01-10T18:25:41.296Z,73.34
2023-01-10T18:28:11.723Z,73.13
2023-01-10T18:30:42.142Z,73.57
2023-01-10T18:33:12.080Z,74.63
2023-01-10T18:35:47.496Z,74.32
2023-01-10T18:38:19.333Z,73.72
2023-01-10T18:40:51.607Z,72.98
2023-01-10T18:43:21.474Z,72.07
2023-01-10T18:45:51.432Z,72.30
2023-01-10T18:48:25.039Z,72.92
2023-01-10T18:50:59.396Z,73.17
2023-01-10T18:53:29.890Z,72.83
2023-01-10T18:56:04.904Z,72.09
2023-01-10T18:58:37.623Z,72.44
2023-01-10T19:01:09.581Z,73.24
2023-01-10T19:03:40.535Z,74.54
2023-01-10T19:06:21.044Z,74.17
2023-01-10T19:08:51.541Z,74.46
2023-01-10T19:11:21.817Z,73.98
2023-01-10T19:13:54.275Z,74.86
2023-01-10T19:16:26.044Z,74.45
2023-01-10T19:18:58.186Z,74.00
2023-01-10T19:21:32.233Z,73.77
2023-01-10T19:24:10.512Z,73.64
2023-01-10T19:26:49.279Z,72.39
2023-01-10T19:29:19.487Z,71.76
2023-01-10T19:31:53.505Z,71.76
2023-01-10T19:34:24.013Z,72.30
2023-01-10T19:37:10.638Z,72.10
2023-01-10T19:39:41.906Z,72.70
2023-01-10T19:42:14.604Z,73.06
2023-01-10T19:44:47.413Z,74.29
2023-01-10T19:47:18.618Z,74.33
2023-01-10T19:49:48.324Z,73.93
2023-01-10T19:52:21.020Z,74.48
2023-01-10T19:54:50.995Z,73.92
2023-01-10T19:57:21.116Z,73.85
2023-01-10T19:59:54.740Z,73.54
2023-01-10T20:02:25.584Z,73.85
2023-01-10T20:04:55.315Z,73.47
2023-01-10T20:07:27.704Z,73.88
2023-01-10T20:10:01.487Z,73.37
2023-01-10T20:12:31.278Z,73.48
2023-01-10T20:15:01.062Z,73.32
2023-01-10T20:17:30.995Z,72.82
2023-01-10T20:20:00.860Z,73.46
2023-01-10T20:22:33.515Z,73.16
2023-01-10T20:25:03.358Z,72.85
2023-01-10T20:27:33.402Z,72.35
2023-01-10T20:30:03.812Z,73.17
2023-01-10T20:32:37.192Z,72.60
2023-01-10T20:35:14.837Z,72.21
2023-01-10T20:37:49.000Z,72.00
2023-01-10T20:40:25.167Z,72.53
2023-01-10T20:42:55.499Z,74.54
2023-01-10T20:45:25.373Z,74.98
2023-01-10T20:47:56.738Z,76.26
2023-01-10T20:50:26.474Z,77.56
2023-01-10T20:52:58.794Z,77.30
2023-01-10T20:55:28.761Z,78.13
2023-01-10T20:57:58.602Z,76.97
2023-01-10T21:00:29.072Z,76.54
2023-01-10T21:02:59.314Z,78.40
2023-01-10T21:05:31.065Z,79.12
2023-01-10T21:08:03.719Z,80.27
2023-01-10T21:10:33.994Z,79.76
2023-01-10T21:13:04.121Z,79.39
2023-01-10T21:15:34.739Z,79.66
2023-01-10T21:18:09.911Z,80.49
2023-01-10T21:20:43.719Z,79.44
2023-01-10T21:23:20.773Z,80.34
2023-01-10T21:25:50.884Z,81.41
2023-01-10T21:28:20.969Z,80.58
2023-01-10T21:30:50.853Z,81.59
2023-01-10T21:33:20.914Z,81.51
2023-01-10T21:35:54.606Z,79.67
2023-01-10T21:38:29.063Z,78.72
2023-01-10T21:41:01.030Z,78.12
2023-01-10T21:43:31.095Z,77.16
2023-01-10T21:46:04.319Z,76.67
2023-01-10T21:48:34.559Z,76.03
2023-01-10T21:51:04.590Z,76.11
2023-01-10T21:53:42.259Z,78.11
2023-01-10T21:56:12.784Z,80.11
2023-01-10T21:58:43.145Z,80.70
2023-01-10T22:01:13.459Z,81.84
2023-01-10T22:03:43.728Z,82.28
2023-01-10T22:06:14.637Z,83.00
2023-01-10T22:08:46.997Z,83.54
2023-01-10T22:11:17.086Z,85.54
2023-01-10T22:13:47.501Z,85.02
2023-01-10T22:16:17.471Z,85.96
2023-01-10T22:18:47.252Z,87.18
2023-01-10T22:21:17.453Z,87.74
2023-01-10T22:23:50.225Z,87.11
2023-01-10T22:26:20.132Z,86.94
2023-01-10T22:28:49.892Z,88.10
2023-01-10T22:31:19.794Z,87.45
2023-01-10T22:33:50.056Z,87.05
2023-01-10T22:36:20.649Z,86.93
2023-01-10T22:38:55.035Z,86.59
2023-01-10T22:41:26.941Z,85.90
2023-01-10T22:43:57.404Z,84.43
2023-01-10T22:46:27.723Z,84.24
2023-01-10T22:48:57.662Z,84.64
2023-01-10T22:51:35.893Z,85.01
2023-01-10T22:54:08.395Z,85.59
2023-01-10T22:56:38.296Z,86.40
2023-01-10T22:59:08.141Z,87.34
2023-01-10T23:01:37.896Z,87.35
2023-01-10T23:04:08.073Z,87.23
2023-01-10T23:06:37.885Z,88.28
2023-01-10T23:09:10.266Z,88.69
2023-01-10T23:11:40.000Z,89.14
2023-01-10T23:14:09.629Z,89.86
2023-01-10T23:16:39.332Z,90.27
2023-01-10T23:19:09.266Z,90.24
2023-01-10T23:21:38.995Z,89.96
2023-01-10T23:24:14.022Z,90.86
2023-01-10T23:26:48.101Z,91.65
2023-01-10T23:29:19.769Z,92.23
2023-01-10T23:31:50.493Z,92.28
2023-01-10T23:34:20.342Z,92.27
2023-01-10T23:36:50.169Z,91.44
2023-01-10T23:39:22.674Z,90.91
2023-01-10T23:41:52.312Z,91.64
2023-01-10T23:44:22.009Z,92.48
2023-01-10T23:46:51.723Z,92.33
2023-01-10T23:49:21.284Z,91.52
2023-01-10T23:51:50.818Z,90.18
2023-01-10T23:54:23.860Z,89.83
2023-01-10T23:56:54.041Z,90.96
2023-01-10T23:59:24.097Z,92.35
